< < Back
Terminal Aerodrome Forecast


Current Version              Previous Versions:   1  2  3  4  5  6  7  8  9  

Terminal Aerodrome Forecast

519
FTUS42 KCAE 221000 AAB
TAFAGS
TAF AMD
KAGS 221027Z 2210/2306 VRB03KT P6SM SCT200
     FM221600 30005KT P6SM FEW060 SCT200
     FM230000 VRB03KT P6SM SCT200=

Latest METAR

341
SAUS70 KWBC 221100 RRC
MTRAGS
METAR KAGS 221053Z 00000KT 10SM CLR 22/21 A3002 RMK AO2 SLP164
T02170206


USA.gov is the U.S. government's official web portal to all federal, state and local government web resources and services.